createdAt,value
2019-03-19T00:00:56.161Z,102049.27
2019-03-19T00:02:01.416Z,102047.67
2019-03-19T00:03:06.706Z,102045.23
2019-03-19T00:04:11.468Z,102052.52
2019-03-19T00:05:16.443Z,102053.30
2019-03-19T00:06:21.968Z,102051.90
2019-03-19T00:07:27.242Z,102055.41
2019-03-19T00:08:32.497Z,102051.44
2019-03-19T00:09:37.506Z,102049.10
2019-03-19T00:10:42.787Z,102049.11
2019-03-19T00:11:47.764Z,102045.45
2019-03-19T00:12:53.148Z,102039.73
2019-03-19T00:13:58.212Z,102051.63
2019-03-19T00:15:02.741Z,102049.41
2019-03-19T00:16:07.727Z,102056.08
2019-03-19T00:17:12.676Z,102053.80
2019-03-19T00:18:17.137Z,102053.50
2019-03-19T00:19:22.621Z,102049.41
2019-03-19T00:20:27.696Z,102048.17
2019-03-19T00:21:32.884Z,102041.20
2019-03-19T00:22:37.678Z,102045.67
2019-03-19T00:23:43.220Z,102042.73
2019-03-19T00:24:48.190Z,102044.52
2019-03-19T00:25:53.339Z,102053.66
2019-03-19T00:26:58.619Z,102050.13
2019-03-19T00:28:03.765Z,102054.97
2019-03-19T00:29:09.028Z,102054.25
2019-03-19T00:30:14.171Z,102058.71
2019-03-19T00:31:19.160Z,102057.42
2019-03-19T00:32:24.394Z,102052.78
2019-03-19T00:33:29.384Z,102049.28
2019-03-19T00:34:34.369Z,102054.94
2019-03-19T00:35:39.633Z,102051.39
2019-03-19T00:36:44.362Z,102055.66
2019-03-19T00:37:49.679Z,102054.47
2019-03-19T00:38:54.383Z,102059.14
2019-03-19T00:39:59.709Z,102056.75
2019-03-19T00:41:04.693Z,102053.66
2019-03-19T00:42:09.667Z,102061.00
2019-03-19T00:43:14.899Z,102063.98
2019-03-19T00:44:20.073Z,102067.53
2019-03-19T00:45:25.409Z,102072.52
2019-03-19T00:46:30.788Z,102073.89
2019-03-19T00:47:36.009Z,102067.51
2019-03-19T00:48:41.519Z,102062.76
2019-03-19T00:49:46.596Z,102062.02
2019-03-19T00:50:51.458Z,102060.62
2019-03-19T00:51:56.508Z,102064.91
2019-03-19T00:53:01.730Z,102062.14
2019-03-19T00:54:06.423Z,102061.98
2019-03-19T00:55:11.140Z,102070.27
2019-03-19T00:56:16.105Z,102069.08
2019-03-19T00:57:20.849Z,102068.28
2019-03-19T00:58:25.919Z,102069.30
2019-03-19T00:59:31.177Z,102067.66
2019-03-19T01:00:36.716Z,102063.20
2019-03-19T01:01:41.672Z,102070.36
2019-03-19T01:02:46.700Z,102061.20
2019-03-19T01:03:51.773Z,102064.09
2019-03-19T01:04:56.749Z,102065.51
2019-03-19T01:06:01.745Z,102063.72
2019-03-19T01:07:06.486Z,102072.03
2019-03-19T01:08:11.476Z,102076.39
2019-03-19T01:09:17.029Z,102079.52
2019-03-19T01:10:22.243Z,102078.36
2019-03-19T01:11:27.499Z,102079.59
2019-03-19T01:12:32.219Z,102082.17
2019-03-19T01:13:37.216Z,102085.52
2019-03-19T01:14:42.299Z,102087.08
2019-03-19T01:15:47.610Z,102084.94
2019-03-19T01:16:53.278Z,102088.16
2019-03-19T01:17:58.236Z,102088.23
2019-03-19T01:19:02.970Z,102091.16
2019-03-19T01:20:09.918Z,102093.91
2019-03-19T01:21:15.520Z,102092.30
2019-03-19T01:22:20.822Z,102102.02
2019-03-19T01:23:25.273Z,102103.37
2019-03-19T01:24:30.139Z,102103.33
2019-03-19T01:25:35.392Z,102107.11
2019-03-19T01:26:40.372Z,102101.49
2019-03-19T01:27:45.361Z,102101.55
2019-03-19T01:28:51.030Z,102096.89
2019-03-19T01:29:56.279Z,102094.74
2019-03-19T01:31:01.303Z,102095.13
2019-03-19T01:32:06.023Z,102094.31
2019-03-19T01:33:10.739Z,102096.64
2019-03-19T01:34:16.050Z,102093.22
2019-03-19T01:35:21.095Z,102101.96
2019-03-19T01:36:26.623Z,102096.45
2019-03-19T01:37:32.159Z,102102.25
2019-03-19T01:38:37.147Z,102097.11
2019-03-19T01:39:42.742Z,102094.37
2019-03-19T01:40:47.701Z,102096.09
2019-03-19T01:41:53.009Z,102102.22
2019-03-19T01:42:58.268Z,102102.98
2019-03-19T01:44:03.251Z,102108.72
2019-03-19T01:45:08.526Z,102112.45
2019-03-19T01:46:13.261Z,102102.06
2019-03-19T01:47:18.257Z,102113.03
2019-03-19T01:48:23.521Z,102109.09
2019-03-19T01:49:29.078Z,102115.16
2019-03-19T01:50:34.366Z,102119.89
2019-03-19T01:51:39.384Z,102106.70
2019-03-19T01:52:44.375Z,102114.62
2019-03-19T01:53:49.070Z,102112.12
2019-03-19T01:54:53.854Z,102107.05
2019-03-19T01:56:05.108Z,102106.26
2019-03-19T01:57:05.937Z,102108.73
2019-03-19T01:58:11.039Z,102102.83
2019-03-19T01:59:16.001Z,102104.36
2019-03-19T02:00:21.190Z,102109.08
2019-03-19T02:01:25.870Z,102106.52
2019-03-19T02:02:30.871Z,102101.24
2019-03-19T02:03:36.416Z,102103.32
2019-03-19T02:04:41.467Z,102106.95
2019-03-19T02:05:47.009Z,102118.19
2019-03-19T02:06:52.091Z,102114.73
2019-03-19T02:07:57.413Z,102119.20
2019-03-19T02:09:02.490Z,102122.14
2019-03-19T02:10:08.359Z,102125.61
2019-03-19T02:11:13.888Z,102123.92
2019-03-19T02:12:18.566Z,102128.95
2019-03-19T02:13:23.021Z,102124.42
2019-03-19T02:14:28.736Z,102123.91
2019-03-19T02:15:34.046Z,102125.20
2019-03-19T02:16:39.036Z,102128.41
2019-03-19T02:17:44.000Z,102127.31
2019-03-19T02:18:49.563Z,102138.92
2019-03-19T02:19:54.510Z,102136.94
2019-03-19T02:20:59.539Z,102134.80
2019-03-19T02:22:04.027Z,102141.16
2019-03-19T02:23:09.270Z,102138.23
2019-03-19T02:24:13.975Z,102142.95
2019-03-19T02:25:19.236Z,102134.96
2019-03-19T02:26:24.297Z,102143.48
2019-03-19T02:27:29.758Z,102139.70
2019-03-19T02:28:35.272Z,102132.50
2019-03-19T02:29:40.534Z,102134.36
2019-03-19T02:30:45.521Z,102128.70
2019-03-19T02:31:50.509Z,102135.44
2019-03-19T02:32:55.811Z,102141.75
2019-03-19T02:34:01.271Z,102136.31
2019-03-19T02:35:06.234Z,102142.72
2019-03-19T02:36:11.775Z,102136.62
2019-03-19T02:37:17.054Z,102137.03
2019-03-19T02:38:22.118Z,102130.20
2019-03-19T02:39:27.716Z,102131.15
2019-03-19T02:40:33.187Z,102133.65
2019-03-19T02:41:37.891Z,102142.05
2019-03-19T02:42:42.875Z,102140.09
2019-03-19T02:43:47.589Z,102146.65
2019-03-19T02:44:56.134Z,102140.80
2019-03-19T02:46:01.681Z,102140.41
2019-03-19T02:47:06.965Z,102145.63
2019-03-19T02:48:11.695Z,102143.19
2019-03-19T02:49:16.795Z,102133.11
2019-03-19T02:50:22.597Z,102142.09
2019-03-19T02:51:27.566Z,102145.78
2019-03-19T02:52:32.888Z,102144.58
2019-03-19T02:53:37.917Z,102144.41
2019-03-19T02:54:43.153Z,102150.04
2019-03-19T02:55:48.152Z,102148.73
2019-03-19T02:56:53.196Z,102155.72
2019-03-19T02:57:58.153Z,102156.68
2019-03-19T02:59:03.192Z,102149.06
2019-03-19T03:00:08.243Z,102155.18
2019-03-19T03:01:13.239Z,102156.05
2019-03-19T03:02:18.262Z,102160.78
2019-03-19T03:03:22.979Z,102164.73
2019-03-19T03:04:28.010Z,102168.34
2019-03-19T03:05:32.750Z,102178.59
2019-03-19T03:06:38.045Z,102179.27
2019-03-19T03:07:43.071Z,102183.11
2019-03-19T03:08:48.381Z,102183.09
2019-03-19T03:09:53.381Z,102187.08
2019-03-19T03:10:58.374Z,102190.30
2019-03-19T03:12:03.349Z,102193.27
2019-03-19T03:13:08.354Z,102193.38
2019-03-19T03:14:13.344Z,102197.75
2019-03-19T03:15:18.351Z,102194.73
2019-03-19T03:16:23.956Z,102196.27
2019-03-19T03:17:28.915Z,102190.48
2019-03-19T03:18:33.590Z,102191.75
2019-03-19T03:19:38.680Z,102184.79
2019-03-19T03:20:43.735Z,102188.51
2019-03-19T03:21:49.033Z,102189.02
2019-03-19T03:22:54.083Z,102192.88
2019-03-19T03:23:59.324Z,102192.78
2019-03-19T03:25:04.931Z,102188.46
2019-03-19T03:26:09.638Z,102199.30
2019-03-19T03:27:14.383Z,102201.58
2019-03-19T03:28:19.406Z,102203.64
2019-03-19T03:29:24.507Z,102204.93
2019-03-19T03:30:29.886Z,102204.67
2019-03-19T03:31:35.182Z,102215.31
2019-03-19T03:32:40.477Z,102209.01
2019-03-19T03:33:45.753Z,102204.16
2019-03-19T03:34:52.128Z,102197.13
2019-03-19T03:35:57.654Z,102199.34
2019-03-19T03:37:02.679Z,102192.34
2019-03-19T03:38:07.719Z,102197.18
2019-03-19T03:39:13.127Z,102185.72
2019-03-19T03:40:18.214Z,102186.63
2019-03-19T03:41:23.194Z,102194.33
2019-03-19T03:42:28.433Z,102195.86
2019-03-19T03:43:33.188Z,102197.14
2019-03-19T03:44:38.836Z,102201.41
2019-03-19T03:45:43.945Z,102193.89
2019-03-19T03:46:49.235Z,102196.20
2019-03-19T03:47:54.201Z,102195.49
2019-03-19T03:48:59.174Z,102202.32
2019-03-19T03:50:03.968Z,102196.53
2019-03-19T03:51:09.018Z,102201.58
2019-03-19T03:52:13.697Z,102200.95
2019-03-19T03:53:18.926Z,102205.09
2019-03-19T03:54:24.459Z,102206.94
2019-03-19T03:55:31.267Z,102201.05
2019-03-19T03:56:36.094Z,102206.00
2019-03-19T03:57:40.829Z,102218.21
2019-03-19T03:58:59.628Z,102215.93
2019-03-19T03:59:53.085Z,102216.45
2019-03-19T04:00:58.656Z,102221.05
2019-03-19T04:02:03.132Z,102223.95
2019-03-19T04:03:07.874Z,102227.39
2019-03-19T04:04:12.889Z,102219.78
2019-03-19T04:05:17.702Z,102222.34
2019-03-19T04:06:22.688Z,102225.70
2019-03-19T04:07:28.044Z,102228.62
2019-03-19T04:08:34.085Z,102230.43
2019-03-19T04:09:39.376Z,102230.59
2019-03-19T04:10:44.410Z,102234.41
2019-03-19T04:11:49.463Z,102229.97
2019-03-19T04:12:54.487Z,102225.72
2019-03-19T04:14:00.036Z,102230.77
2019-03-19T04:15:05.268Z,102226.19
2019-03-19T04:16:10.228Z,102226.81
2019-03-19T04:17:15.484Z,102231.67
2019-03-19T04:18:21.106Z,102219.97
2019-03-19T04:19:26.126Z,102227.23
2019-03-19T04:20:31.696Z,102224.26
2019-03-19T04:21:36.409Z,102231.77
2019-03-19T04:22:41.646Z,102226.36
2019-03-19T04:23:46.345Z,102227.45
2019-03-19T04:24:51.357Z,102237.21
2019-03-19T04:25:56.394Z,102241.72
2019-03-19T04:27:14.890Z,102240.17
2019-03-19T04:28:08.193Z,102241.51
2019-03-19T04:29:13.806Z,102242.47
2019-03-19T04:30:18.259Z,102238.70
2019-03-19T04:31:23.656Z,102237.52
2019-03-19T04:32:28.622Z,102232.80
2019-03-19T04:33:33.915Z,102230.77
2019-03-19T04:34:39.571Z,102228.34
2019-03-19T04:35:44.799Z,102225.58
2019-03-19T04:36:50.205Z,102229.22
2019-03-19T04:37:55.545Z,102234.83
2019-03-19T04:39:01.124Z,102229.16
2019-03-19T04:40:06.186Z,102247.92
2019-03-19T04:41:10.870Z,102239.25
2019-03-19T04:42:16.182Z,102244.13
2019-03-19T04:43:21.198Z,102247.45
2019-03-19T04:44:26.200Z,102249.34
2019-03-19T04:45:31.754Z,102245.34
2019-03-19T04:46:37.027Z,102252.19
2019-03-19T04:47:42.390Z,102257.52
2019-03-19T04:48:48.050Z,102258.36
2019-03-19T04:49:53.590Z,102258.00
2019-03-19T04:50:58.609Z,102259.44
2019-03-19T04:52:04.195Z,102260.25
2019-03-19T04:53:09.191Z,102262.66
2019-03-19T04:54:14.445Z,102267.13
2019-03-19T04:55:19.464Z,102260.97
2019-03-19T04:56:24.735Z,102255.20
2019-03-19T04:57:29.463Z,102258.96
2019-03-19T04:58:34.777Z,102253.12
2019-03-19T04:59:40.066Z,102257.72
2019-03-19T05:00:44.829Z,102254.75
2019-03-19T05:01:49.805Z,102261.48
2019-03-19T05:02:55.348Z,102263.09
2019-03-19T05:04:00.884Z,102261.23
2019-03-19T05:05:06.188Z,102262.77
2019-03-19T05:06:11.318Z,102267.34
2019-03-19T05:07:19.931Z,102259.12
2019-03-19T05:08:24.976Z,102256.98
2019-03-19T05:09:29.945Z,102266.50
2019-03-19T05:10:34.655Z,102265.38
2019-03-19T05:11:39.620Z,102262.89
2019-03-19T05:12:44.684Z,102262.80
2019-03-19T05:13:49.335Z,102261.81
2019-03-19T05:14:54.335Z,102262.16
2019-03-19T05:15:59.578Z,102264.34
2019-03-19T05:17:05.106Z,102264.58
2019-03-19T05:18:10.496Z,102264.58
2019-03-19T05:19:15.490Z,102269.19
2019-03-19T05:20:20.200Z,102269.58
2019-03-19T05:21:25.550Z,102269.63
2019-03-19T05:22:30.969Z,102274.91
2019-03-19T05:23:35.949Z,102272.99
2019-03-19T05:24:41.278Z,102272.59
2019-03-19T05:25:46.021Z,102273.63
2019-03-19T05:26:51.025Z,102271.45
2019-03-19T05:27:57.462Z,102274.71
2019-03-19T05:29:02.794Z,102272.47
2019-03-19T05:30:08.693Z,102274.53
2019-03-19T05:31:13.967Z,102280.63
2019-03-19T05:32:19.248Z,102284.61
2019-03-19T05:33:24.251Z,102284.09
2019-03-19T05:34:29.528Z,102286.17
2019-03-19T05:35:34.522Z,102284.82
2019-03-19T05:36:39.271Z,102289.06
2019-03-19T05:37:44.620Z,102283.91
2019-03-19T05:38:49.582Z,102283.91
2019-03-19T05:39:55.085Z,102283.12
2019-03-19T05:41:00.437Z,102277.48
2019-03-19T05:42:05.689Z,102280.56
2019-03-19T05:43:10.810Z,102278.88
2019-03-19T05:44:16.090Z,102286.64
2019-03-19T05:45:21.361Z,102290.41
2019-03-19T05:46:27.110Z,102289.59
2019-03-19T05:47:37.061Z,102292.77
2019-03-19T05:48:38.526Z,102291.92
2019-03-19T05:49:43.730Z,102288.86
2019-03-19T05:50:49.348Z,102296.00
2019-03-19T05:51:57.671Z,102292.75
2019-03-19T05:53:02.730Z,102290.45
2019-03-19T05:54:07.465Z,102286.84
2019-03-19T05:55:12.307Z,102287.30
2019-03-19T05:56:17.033Z,102288.86
2019-03-19T05:57:22.307Z,102286.69
2019-03-19T05:58:27.047Z,102288.88
2019-03-19T05:59:32.324Z,102286.64
2019-03-19T06:00:37.703Z,102295.14
2019-03-19T06:01:42.492Z,102304.52
2019-03-19T06:02:48.045Z,102308.29
2019-03-19T06:03:53.093Z,102302.36
2019-03-19T06:04:57.544Z,102308.44
2019-03-19T06:06:02.815Z,102307.93
2019-03-19T06:07:07.805Z,102303.91
2019-03-19T06:08:13.366Z,102310.42
2019-03-19T06:09:18.613Z,102310.45
2019-03-19T06:10:25.854Z,102308.89
2019-03-19T06:11:30.343Z,102307.83
2019-03-19T06:12:35.609Z,102306.66
2019-03-19T06:13:40.564Z,102318.11
2019-03-19T06:14:45.295Z,102317.80
2019-03-19T06:15:50.798Z,102318.20
2019-03-19T06:16:55.553Z,102321.84
2019-03-19T06:18:01.243Z,102319.53
2019-03-19T06:19:06.214Z,102320.08
2019-03-19T06:20:12.097Z,102327.41
2019-03-19T06:21:17.052Z,102325.73
2019-03-19T06:22:22.066Z,102325.08
2019-03-19T06:23:27.055Z,102328.59
2019-03-19T06:24:31.774Z,102327.02
2019-03-19T06:25:37.041Z,102327.30
2019-03-19T06:26:42.516Z,102325.25
2019-03-19T06:27:47.557Z,102326.97
2019-03-19T06:28:53.162Z,102325.98
2019-03-19T06:29:58.426Z,102326.78
2019-03-19T06:31:03.675Z,102326.78
2019-03-19T06:32:08.458Z,102329.51
2019-03-19T06:33:13.502Z,102332.23
2019-03-19T06:34:18.569Z,102339.66
2019-03-19T06:35:23.923Z,102332.31
2019-03-19T06:36:28.895Z,102338.41
2019-03-19T06:37:33.672Z,102338.07
2019-03-19T06:38:38.386Z,102341.91
2019-03-19T06:39:43.397Z,102344.09
2019-03-19T06:40:48.066Z,102341.53
2019-03-19T06:41:53.687Z,102342.27
2019-03-19T06:42:59.058Z,102340.76
2019-03-19T06:44:04.055Z,102347.42
2019-03-19T06:45:10.576Z,102348.16
2019-03-19T06:46:15.264Z,102346.05
2019-03-19T06:47:20.340Z,102354.84
2019-03-19T06:48:25.303Z,102354.05
2019-03-19T06:49:30.570Z,102357.61
2019-03-19T06:50:44.803Z,102356.13
2019-03-19T06:51:42.707Z,102361.18
2019-03-19T06:52:47.957Z,102364.38
2019-03-19T06:53:52.957Z,102369.23
2019-03-19T06:54:58.059Z,102370.72
2019-03-19T06:56:03.318Z,102376.47
2019-03-19T06:57:08.371Z,102378.34
2019-03-19T06:58:12.843Z,102383.98
2019-03-19T06:59:18.172Z,102382.24
2019-03-19T07:00:23.111Z,102382.24
2019-03-19T07:01:27.797Z,102377.02
2019-03-19T07:02:33.041Z,102378.13
2019-03-19T07:03:38.523Z,102381.63
2019-03-19T07:04:43.794Z,102389.36
2019-03-19T07:05:48.781Z,102389.10
2019-03-19T07:06:53.685Z,102385.80
2019-03-19T07:07:58.918Z,102384.49
2019-03-19T07:09:04.650Z,102389.64
2019-03-19T07:10:10.410Z,102386.24
2019-03-19T07:11:15.370Z,102386.56
2019-03-19T07:12:20.610Z,102384.05
2019-03-19T07:13:26.149Z,102384.58
2019-03-19T07:14:31.185Z,102383.73
2019-03-19T07:15:36.241Z,102384.20
2019-03-19T07:16:41.516Z,102391.06
2019-03-19T07:17:46.518Z,102387.16
2019-03-19T07:18:51.718Z,102388.73
2019-03-19T07:19:56.603Z,102389.78
2019-03-19T07:21:01.998Z,102389.83
2019-03-19T07:22:06.983Z,102383.67
2019-03-19T07:23:12.332Z,102381.15
2019-03-19T07:24:17.929Z,102384.05
2019-03-19T07:25:22.944Z,102384.86
2019-03-19T07:26:27.936Z,102386.59
2019-03-19T07:27:33.025Z,102385.92
2019-03-19T07:28:37.917Z,102389.09
2019-03-19T07:29:43.201Z,102393.33
2019-03-19T07:30:48.743Z,102395.71
2019-03-19T07:31:53.532Z,102394.05
2019-03-19T07:32:58.893Z,102398.80
2019-03-19T07:34:03.653Z,102394.94
2019-03-19T07:35:09.585Z,102397.55
2019-03-19T07:36:15.143Z,102405.17
2019-03-19T07:37:20.700Z,102402.77
2019-03-19T07:38:26.108Z,102393.92
2019-03-19T07:39:30.912Z,102399.91
2019-03-19T07:40:36.247Z,102406.27
2019-03-19T07:41:41.505Z,102403.23
2019-03-19T07:42:46.761Z,102407.97
2019-03-19T07:43:52.138Z,102413.37
2019-03-19T07:44:56.754Z,102411.97
2019-03-19T07:46:02.032Z,102406.83
2019-03-19T07:47:06.765Z,102409.97
2019-03-19T07:48:12.030Z,102406.94
2019-03-19T07:49:17.555Z,102402.68
2019-03-19T07:50:23.049Z,102400.98
2019-03-19T07:51:28.310Z,102398.03
2019-03-19T07:52:33.372Z,102403.19
2019-03-19T07:53:38.355Z,102406.24
2019-03-19T07:54:43.040Z,102409.01
2019-03-19T07:55:47.754Z,102404.53
2019-03-19T07:56:53.286Z,102406.41
2019-03-19T07:57:58.368Z,102404.58
2019-03-19T07:59:03.924Z,102405.98
2019-03-19T08:00:09.522Z,102408.20
2019-03-19T08:01:14.504Z,102402.59
2019-03-19T08:02:18.991Z,102404.64
2019-03-19T08:03:24.056Z,102402.09
2019-03-19T08:04:29.057Z,102404.27
2019-03-19T08:05:34.426Z,102400.08
2019-03-19T08:06:39.354Z,102405.41
2019-03-19T08:07:44.671Z,102404.81
2019-03-19T08:08:50.061Z,102406.25
2019-03-19T08:09:55.352Z,102404.30
2019-03-19T08:11:00.112Z,102407.50
2019-03-19T08:12:04.795Z,102407.00
2019-03-19T08:13:09.782Z,102409.88
2019-03-19T08:14:14.317Z,102414.28
2019-03-19T08:15:19.263Z,102415.12
2019-03-19T08:16:27.645Z,102422.73
2019-03-19T08:17:31.832Z,102424.70
2019-03-19T08:18:37.073Z,102420.11
2019-03-19T08:19:41.768Z,102419.52
2019-03-19T08:20:47.008Z,102417.48
2019-03-19T08:21:52.278Z,102412.25
2019-03-19T08:22:57.278Z,102411.39
2019-03-19T08:24:02.547Z,102412.42
2019-03-19T08:25:08.807Z,102414.96
2019-03-19T08:26:14.024Z,102412.48
2019-03-19T08:27:19.240Z,102412.68
2019-03-19T08:28:24.804Z,102418.80
2019-03-19T08:29:30.072Z,102417.69
2019-03-19T08:30:35.328Z,102417.56
2019-03-19T08:31:40.356Z,102413.44
2019-03-19T08:32:45.624Z,102411.22
2019-03-19T08:33:51.029Z,102410.93
2019-03-19T08:34:56.383Z,102418.88
2019-03-19T08:36:08.964Z,102412.89
2019-03-19T08:37:07.137Z,102403.02
2019-03-19T08:38:12.437Z,102391.80
2019-03-19T08:39:17.155Z,102377.69
2019-03-19T08:40:22.442Z,102368.65
2019-03-19T08:41:27.597Z,102364.63
2019-03-19T08:42:32.577Z,102353.48
2019-03-19T08:43:37.383Z,102352.72
2019-03-19T08:44:42.361Z,102348.54
2019-03-19T08:45:47.361Z,102351.20
2019-03-19T08:46:52.130Z,102346.34
2019-03-19T08:47:57.418Z,102347.95
2019-03-19T08:49:02.652Z,102342.30
2019-03-19T08:50:08.325Z,102341.53
2019-03-19T08:51:13.384Z,102336.20
2019-03-19T08:52:18.120Z,102337.48
2019-03-19T08:53:23.393Z,102341.16
2019-03-19T08:54:28.962Z,102335.17
2019-03-19T08:55:34.306Z,102339.81
2019-03-19T08:56:39.032Z,102335.55
2019-03-19T08:57:44.054Z,102334.06
2019-03-19T08:58:49.405Z,102335.22
2019-03-19T08:59:57.111Z,102330.31
2019-03-19T09:01:01.679Z,102330.41
2019-03-19T09:02:06.397Z,102335.28
2019-03-19T09:03:11.191Z,102325.91
2019-03-19T09:04:16.211Z,102333.78
2019-03-19T09:05:21.201Z,102332.03
2019-03-19T09:06:26.428Z,102327.70
2019-03-19T09:07:31.266Z,102329.31
2019-03-19T09:08:36.518Z,102327.54
2019-03-19T09:09:41.840Z,102330.56
2019-03-19T09:10:47.159Z,102328.81
2019-03-19T09:11:52.191Z,102327.46
2019-03-19T09:12:57.265Z,102327.66
2019-03-19T09:14:02.624Z,102327.12
2019-03-19T09:15:08.925Z,102324.45
2019-03-19T09:16:13.379Z,102321.37
2019-03-19T09:17:18.631Z,102329.34
2019-03-19T09:18:23.706Z,102332.23
2019-03-19T09:19:28.786Z,102328.97
2019-03-19T09:20:33.792Z,102324.14
2019-03-19T09:21:38.969Z,102330.59
2019-03-19T09:22:43.974Z,102328.92
2019-03-19T09:23:48.930Z,102341.02
2019-03-19T09:24:54.523Z,102342.67
2019-03-19T09:25:59.247Z,102333.27
2019-03-19T09:27:04.111Z,102335.31
2019-03-19T09:28:09.179Z,102338.47
2019-03-19T09:29:16.995Z,102341.67
2019-03-19T09:30:20.933Z,102359.52
2019-03-19T09:31:26.412Z,102349.52
2019-03-19T09:32:31.992Z,102360.66
2019-03-19T09:33:37.250Z,102363.31
2019-03-19T09:34:42.248Z,102366.36
2019-03-19T09:35:47.212Z,102396.02
2019-03-19T09:36:57.183Z,102381.27
2019-03-19T09:37:59.356Z,102390.55
2019-03-19T09:39:05.798Z,102384.82
2019-03-19T09:40:12.187Z,102385.78
2019-03-19T09:41:17.465Z,102400.91
2019-03-19T09:42:22.259Z,102403.88
2019-03-19T09:43:27.256Z,102404.11
2019-03-19T09:44:32.019Z,102400.70
2019-03-19T09:45:36.711Z,102426.55
2019-03-19T09:46:41.647Z,102423.03
2019-03-19T09:47:46.576Z,102412.73
2019-03-19T09:48:51.739Z,102424.01
2019-03-19T09:49:56.733Z,102423.22
2019-03-19T09:51:01.749Z,102432.34
2019-03-19T09:52:06.736Z,102433.39
2019-03-19T09:53:11.727Z,102432.45
2019-03-19T09:54:19.444Z,102445.32
2019-03-19T09:55:23.947Z,102440.60
2019-03-19T09:56:29.186Z,102441.00
2019-03-19T09:57:34.218Z,102446.61
2019-03-19T09:58:39.180Z,102444.86
2019-03-19T09:59:44.650Z,102447.31
2019-03-19T10:00:49.966Z,102442.69
2019-03-19T10:01:55.001Z,102453.33
2019-03-19T10:03:00.008Z,102446.16
2019-03-19T10:04:04.983Z,102449.44
2019-03-19T10:05:09.664Z,102446.31
2019-03-19T10:06:14.712Z,102456.00
2019-03-19T10:07:19.667Z,102466.94
2019-03-19T10:08:24.636Z,102458.97
2019-03-19T10:09:29.657Z,102462.34
2019-03-19T10:10:34.683Z,102462.98
2019-03-19T10:11:40.305Z,102458.34
2019-03-19T10:12:45.293Z,102462.33
2019-03-19T10:13:50.112Z,102462.56
2019-03-19T10:14:54.882Z,102457.73
2019-03-19T10:15:59.540Z,102456.19
2019-03-19T10:17:04.505Z,102452.15
2019-03-19T10:18:09.786Z,102455.41
2019-03-19T10:19:14.486Z,102454.30
2019-03-19T10:20:19.214Z,102458.05
2019-03-19T10:21:24.216Z,102457.39
2019-03-19T10:22:29.442Z,102462.51
2019-03-19T10:23:34.114Z,102463.39
2019-03-19T10:24:39.526Z,102468.56
2019-03-19T10:25:44.255Z,102464.70
2019-03-19T10:26:49.520Z,102463.03
2019-03-19T10:27:55.319Z,102466.09
2019-03-19T10:29:00.058Z,102449.63
2019-03-19T10:30:05.576Z,102461.29
2019-03-19T10:31:11.179Z,102464.63
2019-03-19T10:32:16.476Z,102457.86
2019-03-19T10:33:21.162Z,102455.61
2019-03-19T10:34:26.149Z,102455.61
2019-03-19T10:35:31.166Z,102455.75
2019-03-19T10:36:35.906Z,102459.82
2019-03-19T10:37:40.928Z,102463.44
2019-03-19T10:38:45.998Z,102462.73
2019-03-19T10:39:51.397Z,102458.45
2019-03-19T10:40:56.674Z,102460.70
2019-03-19T10:42:01.937Z,102456.79
2019-03-19T10:43:07.257Z,102462.41
2019-03-19T10:44:12.248Z,102459.91
2019-03-19T10:45:16.982Z,102462.27
2019-03-19T10:46:21.944Z,102458.55
2019-03-19T10:47:26.934Z,102455.82
2019-03-19T10:48:32.031Z,102457.95
2019-03-19T10:49:37.340Z,102459.11
2019-03-19T10:50:42.065Z,102460.42
2019-03-19T10:51:47.123Z,102451.38
2019-03-19T10:52:52.384Z,102461.57
2019-03-19T10:53:57.095Z,102462.11
2019-03-19T10:55:01.846Z,102465.42
2019-03-19T10:56:07.185Z,102460.84
2019-03-19T10:57:12.128Z,102466.65
2019-03-19T10:58:16.923Z,102464.13
2019-03-19T10:59:22.281Z,102474.52
2019-03-19T11:00:27.126Z,102466.80
2019-03-19T11:01:32.430Z,102464.45
2019-03-19T11:02:36.893Z,102465.11
2019-03-19T11:03:42.214Z,102466.06
2019-03-19T11:04:46.662Z,102468.58
2019-03-19T11:05:52.160Z,102467.44
2019-03-19T11:06:56.871Z,102464.45
2019-03-19T11:08:01.909Z,102462.26
2019-03-19T11:09:08.720Z,102462.39
2019-03-19T11:10:13.858Z,102462.39
2019-03-19T11:11:18.544Z,102462.72
2019-03-19T11:12:23.591Z,102464.92
2019-03-19T11:13:28.692Z,102474.19
2019-03-19T11:14:33.994Z,102459.28
2019-03-19T11:15:39.286Z,102459.28
2019-03-19T11:16:43.976Z,102473.45
2019-03-19T11:17:48.935Z,102472.07
2019-03-19T11:18:53.922Z,102471.53
2019-03-19T11:19:58.908Z,102470.05
2019-03-19T11:21:03.596Z,102474.36
2019-03-19T11:22:08.340Z,102465.66
2019-03-19T11:23:13.911Z,102473.55
2019-03-19T11:24:19.456Z,102471.47
2019-03-19T11:25:24.293Z,102464.86
2019-03-19T11:26:29.038Z,102464.86
2019-03-19T11:27:33.997Z,102471.27
2019-03-19T11:28:38.972Z,102424.98
2019-03-19T11:29:43.656Z,102479.82
2019-03-19T11:30:48.333Z,102471.09
2019-03-19T11:31:53.120Z,102471.09
2019-03-19T11:32:58.253Z,102479.83
2019-03-19T11:34:03.253Z,102474.48
2019-03-19T11:35:08.607Z,102474.28
2019-03-19T11:36:13.969Z,102478.33
2019-03-19T11:37:18.968Z,102466.78
2019-03-19T11:38:23.992Z,102466.78
2019-03-19T11:39:29.562Z,102468.89
2019-03-19T11:40:34.558Z,102461.77
2019-03-19T11:41:40.110Z,102467.06
2019-03-19T11:42:44.811Z,102464.05
2019-03-19T11:43:49.821Z,102455.69
2019-03-19T11:44:55.565Z,102461.77
2019-03-19T11:46:00.516Z,102463.49
2019-03-19T11:47:05.500Z,102468.55
2019-03-19T11:48:10.196Z,102466.55
2019-03-19T11:49:15.181Z,102462.33
2019-03-19T11:50:21.331Z,102424.78
2019-03-19T11:51:26.239Z,102466.53
2019-03-19T11:52:31.492Z,102466.53
2019-03-19T11:53:37.025Z,102480.61
2019-03-19T11:54:41.783Z,102480.61
2019-03-19T11:55:46.983Z,102487.23
2019-03-19T11:56:52.026Z,102487.95
2019-03-19T11:57:59.576Z,102485.08
2019-03-19T11:59:04.276Z,102484.73
2019-03-19T12:00:12.854Z,102488.20
2019-03-19T12:01:17.907Z,102453.95
2019-03-19T12:02:26.154Z,102476.31
2019-03-19T12:03:29.490Z,102488.43
2019-03-19T12:04:34.725Z,102488.95
2019-03-19T12:05:39.540Z,102491.56
2019-03-19T12:06:44.531Z,102485.11
2019-03-19T12:07:49.891Z,102492.02
2019-03-19T12:08:54.876Z,102490.95
2019-03-19T12:10:00.374Z,102489.92
2019-03-19T12:11:05.331Z,102482.14
2019-03-19T12:12:11.628Z,102483.93
2019-03-19T12:13:16.947Z,102480.81
2019-03-19T12:14:21.943Z,102480.08
2019-03-19T12:15:26.924Z,102474.10
2019-03-19T12:16:32.201Z,102469.11
2019-03-19T12:17:37.220Z,102480.27
2019-03-19T12:18:42.322Z,102479.79
2019-03-19T12:19:47.363Z,102476.48
2019-03-19T12:20:52.041Z,102478.25
2019-03-19T12:21:56.758Z,102474.48
2019-03-19T12:23:01.739Z,102472.44
2019-03-19T12:24:06.751Z,102470.80